sensor_id;sensor_type;location;lat;lon;timestamp;P1;durP1;ratioP1;P2;durP2;ratioP2
50086;SDS011;35967;50.718;7.050;2022-08-02T00:08:35;4.70;;;1.20;;
50086;SDS011;35967;50.718;7.050;2022-08-02T00:18:36;4.13;;;1.20;;
50086;SDS011;35967;50.718;7.050;2022-08-02T00:28:38;2.53;;;1.03;;
50086;SDS011;35967;50.718;7.050;2022-08-02T00:38:40;3.63;;;1.20;;
50086;SDS011;35967;50.718;7.050;2022-08-02T00:48:41;2.57;;;1.33;;
50086;SDS011;35967;50.718;7.050;2022-08-02T00:58:43;5.40;;;1.17;;
50086;SDS011;35967;50.718;7.050;2022-08-02T01:08:45;4.50;;;1.30;;
50086;SDS011;35967;50.718;7.050;2022-08-02T01:18:49;6.17;;;1.10;;
50086;SDS011;35967;50.718;7.050;2022-08-02T01:39:07;7.80;;;1.30;;
50086;SDS011;35967;50.718;7.050;2022-08-02T01:49:11;4.97;;;1.20;;
50086;SDS011;35967;50.718;7.050;2022-08-02T01:59:15;3.50;;;1.40;;
50086;SDS011;35967;50.718;7.050;2022-08-02T02:09:18;5.67;;;1.33;;
50086;SDS011;35967;50.718;7.050;2022-08-02T02:19:20;2.63;;;1.20;;
50086;SDS011;35967;50.718;7.050;2022-08-02T02:29:24;2.97;;;1.30;;
50086;SDS011;35967;50.718;7.050;2022-08-02T02:39:26;3.40;;;1.60;;
50086;SDS011;35967;50.718;7.050;2022-08-02T02:49:31;4.20;;;1.30;;
50086;SDS011;35967;50.718;7.050;2022-08-02T02:59:33;2.03;;;1.20;;
50086;SDS011;35967;50.718;7.050;2022-08-02T03:09:35;4.07;;;1.40;;
50086;SDS011;35967;50.718;7.050;2022-08-02T03:19:37;3.60;;;1.50;;
50086;SDS011;35967;50.718;7.050;2022-08-02T03:29:38;3.83;;;1.60;;
50086;SDS011;35967;50.718;7.050;2022-08-02T03:39:40;4.50;;;1.60;;
50086;SDS011;35967;50.718;7.050;2022-08-02T03:49:53;5.47;;;1.63;;
50086;SDS011;35967;50.718;7.050;2022-08-02T03:59:55;3.70;;;1.60;;
50086;SDS011;35967;50.718;7.050;2022-08-02T04:09:57;4.53;;;1.63;;
50086;SDS011;35967;50.718;7.050;2022-08-02T04:20:11;4.80;;;2.33;;
50086;SDS011;35967;50.718;7.050;2022-08-02T04:30:16;3.42;;;1.95;;
50086;SDS011;35967;50.718;7.050;2022-08-02T04:40:18;3.50;;;1.50;;
50086;SDS011;35967;50.718;7.050;2022-08-02T04:50:20;6.80;;;2.00;;
50086;SDS011;35967;50.718;7.050;2022-08-02T05:00:22;7.47;;;2.10;;
50086;SDS011;35967;50.718;7.050;2022-08-02T05:10:25;3.13;;;1.70;;
50086;SDS011;35967;50.718;7.050;2022-08-02T05:20:26;3.70;;;1.80;;
50086;SDS011;35967;50.718;7.050;2022-08-02T05:30:28;6.57;;;1.57;;
50086;SDS011;35967;50.718;7.050;2022-08-02T05:40:30;4.00;;;1.50;;
50086;SDS011;35967;50.718;7.050;2022-08-02T05:50:33;3.23;;;1.40;;
50086;SDS011;35967;50.718;7.050;2022-08-02T06:00:39;4.53;;;1.30;;
50086;SDS011;35967;50.718;7.050;2022-08-02T06:10:40;2.63;;;1.50;;
50086;SDS011;35967;50.718;7.050;2022-08-02T06:20:43;3.57;;;1.00;;
50086;SDS011;35967;50.718;7.050;2022-08-02T06:30:50;3.15;;;0.98;;
50086;SDS011;35967;50.718;7.050;2022-08-02T06:40:55;3.38;;;0.90;;
50086;SDS011;35967;50.718;7.050;2022-08-02T06:51:02;7.55;;;1.00;;
50086;SDS011;35967;50.718;7.050;2022-08-02T07:01:03;6.30;;;1.08;;
50086;SDS011;35967;50.718;7.050;2022-08-02T07:11:08;5.68;;;1.08;;
50086;SDS011;35967;50.718;7.050;2022-08-02T07:21:10;2.08;;;0.90;;
50086;SDS011;35967;50.718;7.050;2022-08-02T07:31:12;4.85;;;1.08;;
50086;SDS011;35967;50.718;7.050;2022-08-02T07:41:14;2.72;;;0.88;;
50086;SDS011;35967;50.718;7.050;2022-08-02T07:51:16;2.72;;;0.80;;
50086;SDS011;35967;50.718;7.050;2022-08-02T08:01:17;3.78;;;0.75;;
50086;SDS011;35967;50.718;7.050;2022-08-02T08:11:19;5.22;;;0.88;;
50086;SDS011;35967;50.718;7.050;2022-08-02T08:21:21;3.88;;;0.82;;
50086;SDS011;35967;50.718;7.050;2022-08-02T08:31:23;3.05;;;0.80;;
50086;SDS011;35967;50.718;7.050;2022-08-02T08:41:24;4.13;;;1.13;;
50086;SDS011;35967;50.718;7.050;2022-08-02T08:51:31;1.15;;;0.50;;
50086;SDS011;35967;50.718;7.050;2022-08-02T09:01:36;2.33;;;0.80;;
50086;SDS011;35967;50.718;7.050;2022-08-02T09:11:51;1.45;;;0.60;;
50086;SDS011;35967;50.718;7.050;2022-08-02T09:22:04;2.00;;;0.70;;
50086;SDS011;35967;50.718;7.050;2022-08-02T09:32:08;1.40;;;0.60;;
50086;SDS011;35967;50.718;7.050;2022-08-02T09:42:10;1.83;;;0.50;;
50086;SDS011;35967;50.718;7.050;2022-08-02T09:52:13;1.10;;;0.50;;
50086;SDS011;35967;50.718;7.050;2022-08-02T10:02:15;1.70;;;0.60;;
50086;SDS011;35967;50.718;7.050;2022-08-02T10:12:23;0.90;;;0.50;;
50086;SDS011;35967;50.718;7.050;2022-08-02T10:22:25;1.20;;;0.52;;
50086;SDS011;35967;50.718;7.050;2022-08-02T10:32:29;1.55;;;0.60;;
50086;SDS011;35967;50.718;7.050;2022-08-02T10:42:50;0.80;;;0.50;;
50086;SDS011;35967;50.718;7.050;2022-08-02T10:53:11;0.73;;;0.40;;
50086;SDS011;35967;50.718;7.050;2022-08-02T11:03:31;3.05;;;0.50;;
50086;SDS011;35967;50.718;7.050;2022-08-02T11:34:20;0.95;;;0.35;;
50086;SDS011;35967;50.718;7.050;2022-08-02T11:44:39;3.67;;;0.52;;
50086;SDS011;35967;50.718;7.050;2022-08-02T11:54:42;2.13;;;0.40;;
50086;SDS011;35967;50.718;7.050;2022-08-02T12:04:50;1.00;;;0.50;;
50086;SDS011;35967;50.718;7.050;2022-08-02T12:14:53;0.68;;;0.40;;
50086;SDS011;35967;50.718;7.050;2022-08-02T12:24:55;0.80;;;0.38;;
50086;SDS011;35967;50.718;7.050;2022-08-02T12:35:16;1.85;;;0.40;;
50086;SDS011;35967;50.718;7.050;2022-08-02T12:45:27;1.10;;;0.50;;
50086;SDS011;35967;50.718;7.050;2022-08-02T12:55:46;12.55;;;0.60;;
50086;SDS011;35967;50.718;7.050;2022-08-02T13:06:03;2.60;;;0.50;;
50086;SDS011;35967;50.718;7.050;2022-08-02T13:16:25;2.88;;;0.50;;
50086;SDS011;35967;50.718;7.050;2022-08-02T13:26:31;1.73;;;0.60;;
50086;SDS011;35967;50.718;7.050;2022-08-02T13:36:33;1.25;;;0.60;;
50086;SDS011;35967;50.718;7.050;2022-08-02T13:46:35;1.25;;;0.40;;
50086;SDS011;35967;50.718;7.050;2022-08-02T13:56:46;0.85;;;0.47;;
50086;SDS011;35967;50.718;7.050;2022-08-02T14:06:47;2.83;;;0.57;;
50086;SDS011;35967;50.718;7.050;2022-08-02T14:16:49;7.55;;;0.60;;
50086;SDS011;35967;50.718;7.050;2022-08-02T14:26:51;1.23;;;0.50;;
50086;SDS011;35967;50.718;7.050;2022-08-02T14:36:53;2.38;;;0.50;;
50086;SDS011;35967;50.718;7.050;2022-08-02T14:46:55;1.38;;;0.50;;
50086;SDS011;35967;50.718;7.050;2022-08-02T14:56:58;1.20;;;0.50;;
50086;SDS011;35967;50.718;7.050;2022-08-02T15:07:00;0.77;;;0.50;;
50086;SDS011;35967;50.718;7.050;2022-08-02T15:17:02;1.55;;;0.50;;
50086;SDS011;35967;50.718;7.050;2022-08-02T15:27:04;1.40;;;0.50;;
50086;SDS011;35967;50.718;7.050;2022-08-02T15:37:10;1.77;;;0.60;;
50086;SDS011;35967;50.718;7.050;2022-08-02T15:47:12;2.28;;;0.60;;
50086;SDS011;35967;50.718;7.050;2022-08-02T15:57:14;0.90;;;0.60;;
50086;SDS011;35967;50.718;7.050;2022-08-02T16:07:18;7.82;;;0.65;;
50086;SDS011;35967;50.718;7.050;2022-08-02T16:17:20;5.43;;;0.40;;
50086;SDS011;35967;50.718;7.050;2022-08-02T16:27:42;2.47;;;0.43;;
50086;SDS011;35967;50.718;7.050;2022-08-02T16:38:03;1.30;;;0.50;;
50086;SDS011;35967;50.718;7.050;2022-08-02T16:48:05;6.10;;;1.02;;
50086;SDS011;35967;50.718;7.050;2022-08-02T16:58:09;0.98;;;0.50;;
50086;SDS011;35967;50.718;7.050;2022-08-02T17:08:15;2.05;;;0.55;;
50086;SDS011;35967;50.718;7.050;2022-08-02T17:18:18;1.98;;;0.70;;
50086;SDS011;35967;50.718;7.050;2022-08-02T17:28:26;0.85;;;0.50;;
50086;SDS011;35967;50.718;7.050;2022-08-02T17:38:41;1.80;;;0.80;;
50086;SDS011;35967;50.718;7.050;2022-08-02T17:48:52;1.98;;;0.75;;
50086;SDS011;35967;50.718;7.050;2022-08-02T17:59:16;0.55;;;0.40;;
50086;SDS011;35967;50.718;7.050;2022-08-02T18:09:21;3.70;;;0.70;;
50086;SDS011;35967;50.718;7.050;2022-08-02T18:19:23;4.10;;;0.65;;
50086;SDS011;35967;50.718;7.050;2022-08-02T18:29:43;1.98;;;0.60;;
50086;SDS011;35967;50.718;7.050;2022-08-02T18:39:47;0.93;;;0.47;;
50086;SDS011;35967;50.718;7.050;2022-08-02T18:49:52;2.20;;;0.70;;
50086;SDS011;35967;50.718;7.050;2022-08-02T18:59:56;1.45;;;0.60;;
50086;SDS011;35967;50.718;7.050;2022-08-02T19:09:58;1.20;;;0.60;;
50086;SDS011;35967;50.718;7.050;2022-08-02T19:19:59;1.13;;;0.70;;
50086;SDS011;35967;50.718;7.050;2022-08-02T19:30:03;2.40;;;0.90;;
50086;SDS011;35967;50.718;7.050;2022-08-02T19:40:08;4.00;;;0.80;;
50086;SDS011;35967;50.718;7.050;2022-08-02T19:50:10;3.10;;;0.80;;
50086;SDS011;35967;50.718;7.050;2022-08-02T20:00:13;3.15;;;0.90;;
50086;SDS011;35967;50.718;7.050;2022-08-02T20:10:22;6.97;;;1.90;;
50086;SDS011;35967;50.718;7.050;2022-08-02T20:20:25;2.17;;;1.00;;
50086;SDS011;35967;50.718;7.050;2022-08-02T20:30:47;2.72;;;1.23;;
50086;SDS011;35967;50.718;7.050;2022-08-02T20:40:48;3.13;;;1.40;;
50086;SDS011;35967;50.718;7.050;2022-08-02T20:50:51;5.63;;;2.00;;
50086;SDS011;35967;50.718;7.050;2022-08-02T21:00:54;5.95;;;1.50;;
50086;SDS011;35967;50.718;7.050;2022-08-02T21:11:01;3.38;;;1.50;;
50086;SDS011;35967;50.718;7.050;2022-08-02T21:21:10;5.25;;;2.05;;
50086;SDS011;35967;50.718;7.050;2022-08-02T21:31:16;4.55;;;1.48;;
50086;SDS011;35967;50.718;7.050;2022-08-02T21:41:18;4.95;;;2.88;;
50086;SDS011;35967;50.718;7.050;2022-08-02T21:51:20;4.18;;;1.70;;
50086;SDS011;35967;50.718;7.050;2022-08-02T22:01:23;4.72;;;1.65;;
50086;SDS011;35967;50.718;7.050;2022-08-02T22:11:30;2.88;;;1.30;;
50086;SDS011;35967;50.718;7.050;2022-08-02T22:21:33;2.08;;;1.20;;
50086;SDS011;35967;50.718;7.050;2022-08-02T22:31:55;5.50;;;1.23;;
50086;SDS011;35967;50.718;7.050;2022-08-02T22:41:57;2.20;;;1.02;;
50086;SDS011;35967;50.718;7.050;2022-08-02T22:52:07;6.90;;;1.35;;
50086;SDS011;35967;50.718;7.050;2022-08-02T23:02:11;3.03;;;1.40;;
50086;SDS011;35967;50.718;7.050;2022-08-02T23:12:12;9.45;;;1.40;;
50086;SDS011;35967;50.718;7.050;2022-08-02T23:22:19;7.47;;;2.03;;
50086;SDS011;35967;50.718;7.050;2022-08-02T23:32:30;4.25;;;2.30;;
50086;SDS011;35967;50.718;7.050;2022-08-02T23:42:32;7.80;;;2.17;;
50086;SDS011;35967;50.718;7.050;2022-08-02T23:52:33;4.35;;;1.50;;
